sensor_id;sensor_type;location;lat;lon;timestamp;temperature;humidity
10802;DHT22;5453;50.852;7.102;2024-03-08T00:00:48;5.10;99.90
10802;DHT22;5453;50.852;7.102;2024-03-08T00:03:22;5.10;99.90
10802;DHT22;5453;50.852;7.102;2024-03-08T00:05:54;5.00;99.90
10802;DHT22;5453;50.852;7.102;2024-03-08T00:08:28;5.00;99.90
10802;DHT22;5453;50.852;7.102;2024-03-08T00:11:01;5.00;99.90
10802;DHT22;5453;50.852;7.102;2024-03-08T00:13:35;4.90;99.90
10802;DHT22;5453;50.852;7.102;2024-03-08T00:16:08;4.90;99.90
10802;DHT22;5453;50.852;7.102;2024-03-08T00:18:41;4.90;99.90
10802;DHT22;5453;50.852;7.102;2024-03-08T00:21:13;4.90;99.90
10802;DHT22;5453;50.852;7.102;2024-03-08T00:23:46;4.90;99.90
10802;DHT22;5453;50.852;7.102;2024-03-08T00:26:18;4.90;99.90
10802;DHT22;5453;50.852;7.102;2024-03-08T00:28:53;4.80;99.90
10802;DHT22;5453;50.852;7.102;2024-03-08T00:31:26;4.80;99.90
10802;DHT22;5453;50.852;7.102;2024-03-08T00:33:58;4.80;99.90
10802;DHT22;5453;50.852;7.102;2024-03-08T00:36:31;4.80;99.90
10802;DHT22;5453;50.852;7.102;2024-03-08T00:39:06;4.80;99.90
10802;DHT22;5453;50.852;7.102;2024-03-08T00:41:39;4.80;99.90
10802;DHT22;5453;50.852;7.102;2024-03-08T00:44:13;4.80;99.90
10802;DHT22;5453;50.852;7.102;2024-03-08T00:46:45;4.80;99.90
10802;DHT22;5453;50.852;7.102;2024-03-08T00:49:18;4.80;99.90
10802;DHT22;5453;50.852;7.102;2024-03-08T00:51:50;4.80;99.90
10802;DHT22;5453;50.852;7.102;2024-03-08T00:54:23;4.80;99.90
10802;DHT22;5453;50.852;7.102;2024-03-08T00:56:55;4.80;99.90
10802;DHT22;5453;50.852;7.102;2024-03-08T00:59:32;4.90;99.90
10802;DHT22;5453;50.852;7.102;2024-03-08T01:02:05;4.80;99.90
10802;DHT22;5453;50.852;7.102;2024-03-08T01:04:37;4.80;99.90
10802;DHT22;5453;50.852;7.102;2024-03-08T01:07:10;4.90;99.90
10802;DHT22;5453;50.852;7.102;2024-03-08T01:09:42;4.90;99.90
10802;DHT22;5453;50.852;7.102;2024-03-08T01:12:14;4.80;99.90
10802;DHT22;5453;50.852;7.102;2024-03-08T01:14:48;4.80;99.90
10802;DHT22;5453;50.852;7.102;2024-03-08T01:17:20;4.80;99.90
10802;DHT22;5453;50.852;7.102;2024-03-08T01:19:53;4.80;99.90
10802;DHT22;5453;50.852;7.102;2024-03-08T01:22:25;4.80;99.90
10802;DHT22;5453;50.852;7.102;2024-03-08T01:24:59;4.80;99.90
10802;DHT22;5453;50.852;7.102;2024-03-08T01:27:31;4.80;99.90
10802;DHT22;5453;50.852;7.102;2024-03-08T01:30:07;4.80;99.90
10802;DHT22;5453;50.852;7.102;2024-03-08T01:32:41;4.70;99.90
10802;DHT22;5453;50.852;7.102;2024-03-08T01:35:17;4.70;99.90
10802;DHT22;5453;50.852;7.102;2024-03-08T01:37:52;4.70;99.90
10802;DHT22;5453;50.852;7.102;2024-03-08T01:40:24;4.60;99.90
10802;DHT22;5453;50.852;7.102;2024-03-08T01:42:57;4.60;99.90
10802;DHT22;5453;50.852;7.102;2024-03-08T01:45:50;4.60;99.90
10802;DHT22;5453;50.852;7.102;2024-03-08T01:48:23;4.60;99.90
10802;DHT22;5453;50.852;7.102;2024-03-08T01:50:56;4.60;99.90
10802;DHT22;5453;50.852;7.102;2024-03-08T01:53:29;4.60;99.90
10802;DHT22;5453;50.852;7.102;2024-03-08T01:56:02;4.60;99.90
10802;DHT22;5453;50.852;7.102;2024-03-08T01:58:35;4.60;99.90
10802;DHT22;5453;50.852;7.102;2024-03-08T02:01:13;4.70;99.90
10802;DHT22;5453;50.852;7.102;2024-03-08T02:03:46;4.70;99.90
10802;DHT22;5453;50.852;7.102;2024-03-08T02:06:18;4.70;99.90
10802;DHT22;5453;50.852;7.102;2024-03-08T02:08:51;4.70;99.90
10802;DHT22;5453;50.852;7.102;2024-03-08T02:11:24;4.70;99.90
10802;DHT22;5453;50.852;7.102;2024-03-08T02:13:56;4.70;99.90
10802;DHT22;5453;50.852;7.102;2024-03-08T02:16:30;4.70;99.90
10802;DHT22;5453;50.852;7.102;2024-03-08T02:19:03;4.60;99.90
10802;DHT22;5453;50.852;7.102;2024-03-08T02:21:38;4.60;99.90
10802;DHT22;5453;50.852;7.102;2024-03-08T02:24:10;4.60;99.90
10802;DHT22;5453;50.852;7.102;2024-03-08T02:26:42;4.60;99.90
10802;DHT22;5453;50.852;7.102;2024-03-08T02:29:18;4.60;99.90
10802;DHT22;5453;50.852;7.102;2024-03-08T02:31:51;4.60;99.90
10802;DHT22;5453;50.852;7.102;2024-03-08T02:34:23;4.60;99.90
10802;DHT22;5453;50.852;7.102;2024-03-08T02:36:57;4.60;99.90
10802;DHT22;5453;50.852;7.102;2024-03-08T02:39:29;4.60;99.90
10802;DHT22;5453;50.852;7.102;2024-03-08T02:42:03;4.60;99.90
10802;DHT22;5453;50.852;7.102;2024-03-08T02:44:35;4.60;99.90
10802;DHT22;5453;50.852;7.102;2024-03-08T02:47:08;4.60;99.90
10802;DHT22;5453;50.852;7.102;2024-03-08T02:49:40;4.60;99.90
10802;DHT22;5453;50.852;7.102;2024-03-08T02:52:14;4.60;99.90
10802;DHT22;5453;50.852;7.102;2024-03-08T02:54:47;4.50;99.90
10802;DHT22;5453;50.852;7.102;2024-03-08T02:57:23;4.50;99.90
10802;DHT22;5453;50.852;7.102;2024-03-08T02:59:56;4.50;99.90
10802;DHT22;5453;50.852;7.102;2024-03-08T03:02:30;4.50;99.90
10802;DHT22;5453;50.852;7.102;2024-03-08T03:05:03;4.50;99.90
10802;DHT22;5453;50.852;7.102;2024-03-08T03:07:38;4.50;99.90
10802;DHT22;5453;50.852;7.102;2024-03-08T03:10:10;4.50;99.90
10802;DHT22;5453;50.852;7.102;2024-03-08T03:12:48;4.50;99.90
10802;DHT22;5453;50.852;7.102;2024-03-08T03:15:20;4.40;99.90
10802;DHT22;5453;50.852;7.102;2024-03-08T03:17:53;4.40;99.90
10802;DHT22;5453;50.852;7.102;2024-03-08T03:20:24;4.30;99.90
10802;DHT22;5453;50.852;7.102;2024-03-08T03:23:04;4.30;99.90
10802;DHT22;5453;50.852;7.102;2024-03-08T03:25:41;4.30;99.90
10802;DHT22;5453;50.852;7.102;2024-03-08T03:28:14;4.30;99.90
10802;DHT22;5453;50.852;7.102;2024-03-08T03:30:48;4.30;99.90
10802;DHT22;5453;50.852;7.102;2024-03-08T03:33:21;4.30;99.90
10802;DHT22;5453;50.852;7.102;2024-03-08T03:35:53;4.20;99.90
10802;DHT22;5453;50.852;7.102;2024-03-08T03:38:27;4.30;99.90
10802;DHT22;5453;50.852;7.102;2024-03-08T03:41:00;4.30;99.90
10802;DHT22;5453;50.852;7.102;2024-03-08T03:43:40;4.20;99.90
10802;DHT22;5453;50.852;7.102;2024-03-08T03:46:13;4.20;99.90
10802;DHT22;5453;50.852;7.102;2024-03-08T03:48:45;4.20;99.90
10802;DHT22;5453;50.852;7.102;2024-03-08T03:51:17;4.20;99.90
10802;DHT22;5453;50.852;7.102;2024-03-08T03:53:52;4.20;99.90
10802;DHT22;5453;50.852;7.102;2024-03-08T03:56:27;4.20;99.90
10802;DHT22;5453;50.852;7.102;2024-03-08T03:59:00;4.20;99.90
10802;DHT22;5453;50.852;7.102;2024-03-08T04:01:32;4.10;99.90
10802;DHT22;5453;50.852;7.102;2024-03-08T04:04:05;4.10;99.90
10802;DHT22;5453;50.852;7.102;2024-03-08T04:06:37;4.00;99.90
10802;DHT22;5453;50.852;7.102;2024-03-08T04:09:11;4.00;99.90
10802;DHT22;5453;50.852;7.102;2024-03-08T04:11:43;4.00;99.90
10802;DHT22;5453;50.852;7.102;2024-03-08T04:14:15;4.00;99.90
10802;DHT22;5453;50.852;7.102;2024-03-08T04:16:48;4.00;99.90
10802;DHT22;5453;50.852;7.102;2024-03-08T04:19:20;4.00;99.90
10802;DHT22;5453;50.852;7.102;2024-03-08T04:21:53;4.00;99.90
10802;DHT22;5453;50.852;7.102;2024-03-08T04:24:26;4.00;99.90
10802;DHT22;5453;50.852;7.102;2024-03-08T04:26:59;4.10;99.90
10802;DHT22;5453;50.852;7.102;2024-03-08T04:29:31;4.10;99.90
10802;DHT22;5453;50.852;7.102;2024-03-08T04:32:06;4.10;99.90
10802;DHT22;5453;50.852;7.102;2024-03-08T04:34:39;4.10;99.90
10802;DHT22;5453;50.852;7.102;2024-03-08T04:37:11;4.10;99.90
10802;DHT22;5453;50.852;7.102;2024-03-08T04:39:46;4.10;99.90
10802;DHT22;5453;50.852;7.102;2024-03-08T04:42:18;4.10;99.90
10802;DHT22;5453;50.852;7.102;2024-03-08T04:44:51;4.10;99.90
10802;DHT22;5453;50.852;7.102;2024-03-08T04:47:24;4.10;99.90
10802;DHT22;5453;50.852;7.102;2024-03-08T04:49:57;4.10;99.90
10802;DHT22;5453;50.852;7.102;2024-03-08T04:52:29;4.10;99.90
10802;DHT22;5453;50.852;7.102;2024-03-08T04:55:04;4.10;99.90
10802;DHT22;5453;50.852;7.102;2024-03-08T04:57:37;4.10;99.90
10802;DHT22;5453;50.852;7.102;2024-03-08T05:00:10;4.10;99.90
10802;DHT22;5453;50.852;7.102;2024-03-08T05:02:43;4.00;99.90
10802;DHT22;5453;50.852;7.102;2024-03-08T05:05:16;4.00;99.90
10802;DHT22;5453;50.852;7.102;2024-03-08T05:07:51;4.00;99.90
10802;DHT22;5453;50.852;7.102;2024-03-08T05:10:25;4.10;99.90
10802;DHT22;5453;50.852;7.102;2024-03-08T05:12:58;4.10;99.90
10802;DHT22;5453;50.852;7.102;2024-03-08T05:15:30;4.00;99.90
10802;DHT22;5453;50.852;7.102;2024-03-08T05:18:05;4.00;99.90
10802;DHT22;5453;50.852;7.102;2024-03-08T05:20:39;4.00;99.90
10802;DHT22;5453;50.852;7.102;2024-03-08T05:23:12;4.00;99.90
10802;DHT22;5453;50.852;7.102;2024-03-08T05:25:45;3.90;99.90
10802;DHT22;5453;50.852;7.102;2024-03-08T05:28:18;3.80;99.90
10802;DHT22;5453;50.852;7.102;2024-03-08T05:30:51;3.80;99.90
10802;DHT22;5453;50.852;7.102;2024-03-08T05:33:23;3.70;99.90
10802;DHT22;5453;50.852;7.102;2024-03-08T05:35:58;3.80;99.90
10802;DHT22;5453;50.852;7.102;2024-03-08T05:38:31;3.80;99.90
10802;DHT22;5453;50.852;7.102;2024-03-08T05:41:05;3.80;99.90
10802;DHT22;5453;50.852;7.102;2024-03-08T05:43:40;3.80;99.90
10802;DHT22;5453;50.852;7.102;2024-03-08T05:46:15;3.80;99.90
10802;DHT22;5453;50.852;7.102;2024-03-08T05:48:49;3.80;99.90
10802;DHT22;5453;50.852;7.102;2024-03-08T05:51:23;3.80;99.90
10802;DHT22;5453;50.852;7.102;2024-03-08T05:53:57;3.80;99.90
10802;DHT22;5453;50.852;7.102;2024-03-08T05:56:31;3.80;99.90
10802;DHT22;5453;50.852;7.102;2024-03-08T05:59:04;3.80;99.90
10802;DHT22;5453;50.852;7.102;2024-03-08T06:01:36;3.80;99.90
10802;DHT22;5453;50.852;7.102;2024-03-08T06:04:11;3.80;99.90
10802;DHT22;5453;50.852;7.102;2024-03-08T06:06:45;3.70;99.90
10802;DHT22;5453;50.852;7.102;2024-03-08T06:09:17;3.80;99.90
10802;DHT22;5453;50.852;7.102;2024-03-08T06:11:55;3.80;99.90
10802;DHT22;5453;50.852;7.102;2024-03-08T06:14:28;3.80;99.90
10802;DHT22;5453;50.852;7.102;2024-03-08T06:17:00;3.80;99.90
10802;DHT22;5453;50.852;7.102;2024-03-08T06:19:32;3.80;99.90
10802;DHT22;5453;50.852;7.102;2024-03-08T06:22:06;3.80;99.90
10802;DHT22;5453;50.852;7.102;2024-03-08T06:24:40;3.80;99.90
10802;DHT22;5453;50.852;7.102;2024-03-08T06:27:14;3.80;99.90
10802;DHT22;5453;50.852;7.102;2024-03-08T06:29:47;3.80;99.90
10802;DHT22;5453;50.852;7.102;2024-03-08T06:32:20;3.80;99.90
10802;DHT22;5453;50.852;7.102;2024-03-08T06:34:53;3.90;99.90
10802;DHT22;5453;50.852;7.102;2024-03-08T06:37:25;4.10;99.90
10802;DHT22;5453;50.852;7.102;2024-03-08T06:40:01;4.40;99.90
10802;DHT22;5453;50.852;7.102;2024-03-08T06:42:36;4.60;99.90
10802;DHT22;5453;50.852;7.102;2024-03-08T06:45:09;4.90;99.90
10802;DHT22;5453;50.852;7.102;2024-03-08T06:47:43;5.10;99.90
10802;DHT22;5453;50.852;7.102;2024-03-08T06:50:16;5.20;99.90
10802;DHT22;5453;50.852;7.102;2024-03-08T06:52:49;5.30;99.90
10802;DHT22;5453;50.852;7.102;2024-03-08T06:55:24;5.40;99.90
10802;DHT22;5453;50.852;7.102;2024-03-08T06:58:01;5.40;99.90
10802;DHT22;5453;50.852;7.102;2024-03-08T07:00:33;5.50;99.90
10802;DHT22;5453;50.852;7.102;2024-03-08T07:03:07;5.80;99.90
10802;DHT22;5453;50.852;7.102;2024-03-08T07:05:43;6.40;99.90
10802;DHT22;5453;50.852;7.102;2024-03-08T07:08:15;7.10;99.90
10802;DHT22;5453;50.852;7.102;2024-03-08T07:10:48;7.80;99.70
10802;DHT22;5453;50.852;7.102;2024-03-08T07:13:22;8.40;98.40
10802;DHT22;5453;50.852;7.102;2024-03-08T07:16:00;8.80;97.00
10802;DHT22;5453;50.852;7.102;2024-03-08T07:18:33;9.30;95.80
10802;DHT22;5453;50.852;7.102;2024-03-08T07:21:06;9.70;94.80
10802;DHT22;5453;50.852;7.102;2024-03-08T07:23:39;10.10;93.80
10802;DHT22;5453;50.852;7.102;2024-03-08T07:26:44;10.20;92.80
10802;DHT22;5453;50.852;7.102;2024-03-08T07:29:21;10.20;92.10
10802;DHT22;5453;50.852;7.102;2024-03-08T07:31:57;10.10;91.40
10802;DHT22;5453;50.852;7.102;2024-03-08T07:34:42;10.00;91.50
10802;DHT22;5453;50.852;7.102;2024-03-08T07:37:14;9.80;91.50
10802;DHT22;5453;50.852;7.102;2024-03-08T07:39:47;9.60;91.90
10802;DHT22;5453;50.852;7.102;2024-03-08T07:42:19;9.50;91.90
10802;DHT22;5453;50.852;7.102;2024-03-08T07:44:53;9.20;91.80
10802;DHT22;5453;50.852;7.102;2024-03-08T07:47:26;8.90;92.60
10802;DHT22;5453;50.852;7.102;2024-03-08T07:50:01;8.70;93.10
10802;DHT22;5453;50.852;7.102;2024-03-08T07:52:34;8.70;93.20
10802;DHT22;5453;50.852;7.102;2024-03-08T07:55:07;8.70;93.30
10802;DHT22;5453;50.852;7.102;2024-03-08T07:57:40;8.70;93.60
10802;DHT22;5453;50.852;7.102;2024-03-08T08:00:15;8.50;93.50
10802;DHT22;5453;50.852;7.102;2024-03-08T08:02:49;8.60;94.00
10802;DHT22;5453;50.852;7.102;2024-03-08T08:05:21;8.50;94.00
10802;DHT22;5453;50.852;7.102;2024-03-08T08:07:54;8.50;94.20
10802;DHT22;5453;50.852;7.102;2024-03-08T08:10:26;8.50;94.30
10802;DHT22;5453;50.852;7.102;2024-03-08T08:12:59;8.50;94.50
10802;DHT22;5453;50.852;7.102;2024-03-08T08:15:33;8.60;94.30
10802;DHT22;5453;50.852;7.102;2024-03-08T08:18:06;8.50;94.00
10802;DHT22;5453;50.852;7.102;2024-03-08T08:20:40;8.60;94.00
10802;DHT22;5453;50.852;7.102;2024-03-08T08:23:13;8.70;93.70
10802;DHT22;5453;50.852;7.102;2024-03-08T08:25:46;8.90;93.40
10802;DHT22;5453;50.852;7.102;2024-03-08T08:28:20;9.10;93.50
10802;DHT22;5453;50.852;7.102;2024-03-08T08:30:54;9.40;93.40
10802;DHT22;5453;50.852;7.102;2024-03-08T08:33:26;9.70;92.70
10802;DHT22;5453;50.852;7.102;2024-03-08T08:35:59;10.00;92.00
10802;DHT22;5453;50.852;7.102;2024-03-08T08:38:31;10.30;92.00
10802;DHT22;5453;50.852;7.102;2024-03-08T08:41:04;10.60;91.10
10802;DHT22;5453;50.852;7.102;2024-03-08T08:43:37;11.00;90.50
10802;DHT22;5453;50.852;7.102;2024-03-08T08:46:11;11.30;88.80
10802;DHT22;5453;50.852;7.102;2024-03-08T08:48:44;11.70;87.80
10802;DHT22;5453;50.852;7.102;2024-03-08T08:51:17;12.00;85.60
10802;DHT22;5453;50.852;7.102;2024-03-08T08:53:49;12.60;85.80
10802;DHT22;5453;50.852;7.102;2024-03-08T08:56:22;13.00;82.70
10802;DHT22;5453;50.852;7.102;2024-03-08T08:58:54;13.10;81.90
10802;DHT22;5453;50.852;7.102;2024-03-08T09:01:28;13.20;81.40
10802;DHT22;5453;50.852;7.102;2024-03-08T09:04:00;13.30;80.50
10802;DHT22;5453;50.852;7.102;2024-03-08T09:06:33;13.40;83.40
10802;DHT22;5453;50.852;7.102;2024-03-08T09:09:06;13.50;82.50
10802;DHT22;5453;50.852;7.102;2024-03-08T09:11:41;13.60;81.30
10802;DHT22;5453;50.852;7.102;2024-03-08T09:14:17;13.30;79.10
10802;DHT22;5453;50.852;7.102;2024-03-08T09:16:52;12.90;79.50
10802;DHT22;5453;50.852;7.102;2024-03-08T09:19:24;12.50;80.60
10802;DHT22;5453;50.852;7.102;2024-03-08T09:21:57;12.30;81.10
10802;DHT22;5453;50.852;7.102;2024-03-08T09:24:29;12.10;82.10
10802;DHT22;5453;50.852;7.102;2024-03-08T09:27:02;12.10;82.10
10802;DHT22;5453;50.852;7.102;2024-03-08T09:29:34;12.00;82.10
10802;DHT22;5453;50.852;7.102;2024-03-08T09:32:11;12.00;83.40
10802;DHT22;5453;50.852;7.102;2024-03-08T09:34:43;12.00;82.70
10802;DHT22;5453;50.852;7.102;2024-03-08T09:37:16;12.10;83.90
10802;DHT22;5453;50.852;7.102;2024-03-08T09:39:49;12.20;83.10
10802;DHT22;5453;50.852;7.102;2024-03-08T09:42:21;12.20;83.50
10802;DHT22;5453;50.852;7.102;2024-03-08T09:44:54;12.30;84.00
10802;DHT22;5453;50.852;7.102;2024-03-08T09:47:28;12.50;84.00
10802;DHT22;5453;50.852;7.102;2024-03-08T09:50:05;12.70;82.00
10802;DHT22;5453;50.852;7.102;2024-03-08T09:52:40;12.80;79.80
10802;DHT22;5453;50.852;7.102;2024-03-08T09:55:15;12.60;79.30
10802;DHT22;5453;50.852;7.102;2024-03-08T09:57:49;12.60;79.70
10802;DHT22;5453;50.852;7.102;2024-03-08T10:00:35;12.50;79.50
10802;DHT22;5453;50.852;7.102;2024-03-08T10:03:09;12.50;79.00
10802;DHT22;5453;50.852;7.102;2024-03-08T10:05:42;12.40;79.50
10802;DHT22;5453;50.852;7.102;2024-03-08T10:08:15;12.20;79.00
10802;DHT22;5453;50.852;7.102;2024-03-08T10:10:47;12.20;79.80
10802;DHT22;5453;50.852;7.102;2024-03-08T10:13:21;12.10;79.30
10802;DHT22;5453;50.852;7.102;2024-03-08T10:15:53;12.10;79.30
10802;DHT22;5453;50.852;7.102;2024-03-08T10:18:27;12.10;79.80
10802;DHT22;5453;50.852;7.102;2024-03-08T10:21:03;12.20;79.50
10802;DHT22;5453;50.852;7.102;2024-03-08T10:23:38;12.40;79.70
10802;DHT22;5453;50.852;7.102;2024-03-08T10:26:16;12.50;79.10
10802;DHT22;5453;50.852;7.102;2024-03-08T10:28:50;12.60;79.50
10802;DHT22;5453;50.852;7.102;2024-03-08T10:31:23;12.90;79.90
10802;DHT22;5453;50.852;7.102;2024-03-08T10:33:57;13.20;79.30
10802;DHT22;5453;50.852;7.102;2024-03-08T10:36:29;13.40;76.80
10802;DHT22;5453;50.852;7.102;2024-03-08T10:39:09;13.60;78.10
10802;DHT22;5453;50.852;7.102;2024-03-08T10:41:52;13.70;76.30
10802;DHT22;5453;50.852;7.102;2024-03-08T10:44:40;13.60;75.20
10802;DHT22;5453;50.852;7.102;2024-03-08T10:47:22;13.40;75.00
10802;DHT22;5453;50.852;7.102;2024-03-08T10:50:10;13.20;75.80
10802;DHT22;5453;50.852;7.102;2024-03-08T10:52:52;13.20;75.60
10802;DHT22;5453;50.852;7.102;2024-03-08T10:55:27;13.20;76.10
10802;DHT22;5453;50.852;7.102;2024-03-08T10:58:00;13.20;76.60
10802;DHT22;5453;50.852;7.102;2024-03-08T11:00:32;13.20;77.60
10802;DHT22;5453;50.852;7.102;2024-03-08T11:03:05;13.10;74.90
10802;DHT22;5453;50.852;7.102;2024-03-08T11:05:40;13.00;75.50
10802;DHT22;5453;50.852;7.102;2024-03-08T11:08:17;12.90;75.60
10802;DHT22;5453;50.852;7.102;2024-03-08T11:10:53;12.80;74.90
10802;DHT22;5453;50.852;7.102;2024-03-08T11:13:33;12.70;75.50
10802;DHT22;5453;50.852;7.102;2024-03-08T11:16:07;12.70;75.20
10802;DHT22;5453;50.852;7.102;2024-03-08T11:18:40;12.70;75.90
10802;DHT22;5453;50.852;7.102;2024-03-08T11:21:13;12.80;76.40
10802;DHT22;5453;50.852;7.102;2024-03-08T11:23:59;12.80;75.30
10802;DHT22;5453;50.852;7.102;2024-03-08T11:26:34;12.80;75.30
10802;DHT22;5453;50.852;7.102;2024-03-08T11:29:33;12.80;74.70
10802;DHT22;5453;50.852;7.102;2024-03-08T11:32:11;12.80;75.20
10802;DHT22;5453;50.852;7.102;2024-03-08T11:34:47;12.70;75.40
10802;DHT22;5453;50.852;7.102;2024-03-08T11:37:22;12.70;75.00
10802;DHT22;5453;50.852;7.102;2024-03-08T11:39:54;12.60;75.80
10802;DHT22;5453;50.852;7.102;2024-03-08T11:42:32;12.60;74.50
10802;DHT22;5453;50.852;7.102;2024-03-08T11:45:09;12.60;75.20
10802;DHT22;5453;50.852;7.102;2024-03-08T11:47:42;12.60;74.60
10802;DHT22;5453;50.852;7.102;2024-03-08T11:50:20;12.60;74.80
10802;DHT22;5453;50.852;7.102;2024-03-08T11:53:00;12.60;74.80
10802;DHT22;5453;50.852;7.102;2024-03-08T11:55:34;12.60;75.40
10802;DHT22;5453;50.852;7.102;2024-03-08T11:58:07;12.70;74.40
10802;DHT22;5453;50.852;7.102;2024-03-08T12:00:41;12.70;74.60
10802;DHT22;5453;50.852;7.102;2024-03-08T12:03:17;12.70;74.20
10802;DHT22;5453;50.852;7.102;2024-03-08T12:05:57;12.60;74.30
10802;DHT22;5453;50.852;7.102;2024-03-08T12:08:35;12.50;74.10
10802;DHT22;5453;50.852;7.102;2024-03-08T12:11:08;12.50;75.50
10802;DHT22;5453;50.852;7.102;2024-03-08T12:13:41;12.60;75.00
10802;DHT22;5453;50.852;7.102;2024-03-08T12:16:17;12.70;75.20
10802;DHT22;5453;50.852;7.102;2024-03-08T12:18:52;12.80;75.10
10802;DHT22;5453;50.852;7.102;2024-03-08T12:21:26;12.90;74.30
10802;DHT22;5453;50.852;7.102;2024-03-08T12:24:06;12.90;73.20
10802;DHT22;5453;50.852;7.102;2024-03-08T12:26:40;12.90;73.30
10802;DHT22;5453;50.852;7.102;2024-03-08T12:29:17;12.90;73.90
10802;DHT22;5453;50.852;7.102;2024-03-08T12:31:51;12.90;73.40
10802;DHT22;5453;50.852;7.102;2024-03-08T12:34:25;12.90;73.00
10802;DHT22;5453;50.852;7.102;2024-03-08T12:36:58;12.80;72.80
10802;DHT22;5453;50.852;7.102;2024-03-08T12:39:32;12.70;73.20
10802;DHT22;5453;50.852;7.102;2024-03-08T12:42:05;12.70;73.40
10802;DHT22;5453;50.852;7.102;2024-03-08T12:44:37;12.70;73.30
10802;DHT22;5453;50.852;7.102;2024-03-08T12:47:14;12.60;74.10
10802;DHT22;5453;50.852;7.102;2024-03-08T12:49:46;12.80;74.30
10802;DHT22;5453;50.852;7.102;2024-03-08T12:52:18;12.80;73.20
10802;DHT22;5453;50.852;7.102;2024-03-08T12:54:55;12.90;74.00
10802;DHT22;5453;50.852;7.102;2024-03-08T12:57:27;13.00;72.10
10802;DHT22;5453;50.852;7.102;2024-03-08T13:00:00;13.00;72.50
10802;DHT22;5453;50.852;7.102;2024-03-08T13:02:33;13.00;72.50
10802;DHT22;5453;50.852;7.102;2024-03-08T13:05:06;13.00;72.60
10802;DHT22;5453;50.852;7.102;2024-03-08T13:07:40;13.00;73.10
10802;DHT22;5453;50.852;7.102;2024-03-08T13:10:18;13.10;73.20
10802;DHT22;5453;50.852;7.102;2024-03-08T13:12:51;13.10;72.80
10802;DHT22;5453;50.852;7.102;2024-03-08T13:15:23;13.10;72.60
10802;DHT22;5453;50.852;7.102;2024-03-08T13:17:56;13.10;71.80
10802;DHT22;5453;50.852;7.102;2024-03-08T13:20:30;13.10;72.20
10802;DHT22;5453;50.852;7.102;2024-03-08T13:23:03;13.10;73.30
10802;DHT22;5453;50.852;7.102;2024-03-08T13:25:37;13.20;72.20
10802;DHT22;5453;50.852;7.102;2024-03-08T13:28:10;13.10;72.30
10802;DHT22;5453;50.852;7.102;2024-03-08T13:30:42;13.10;72.10
10802;DHT22;5453;50.852;7.102;2024-03-08T13:33:15;13.10;71.50
10802;DHT22;5453;50.852;7.102;2024-03-08T13:35:47;13.00;71.60
10802;DHT22;5453;50.852;7.102;2024-03-08T13:38:20;12.90;71.30
10802;DHT22;5453;50.852;7.102;2024-03-08T13:40:58;12.80;71.10
10802;DHT22;5453;50.852;7.102;2024-03-08T13:43:30;12.90;71.80
10802;DHT22;5453;50.852;7.102;2024-03-08T13:46:05;12.90;72.10
10802;DHT22;5453;50.852;7.102;2024-03-08T13:48:37;12.90;72.00
10802;DHT22;5453;50.852;7.102;2024-03-08T13:51:10;12.80;71.70
10802;DHT22;5453;50.852;7.102;2024-03-08T13:53:46;12.80;71.70
10802;DHT22;5453;50.852;7.102;2024-03-08T13:56:19;12.80;72.30
10802;DHT22;5453;50.852;7.102;2024-03-08T13:58:55;12.80;72.30
10802;DHT22;5453;50.852;7.102;2024-03-08T14:01:28;12.80;72.40
10802;DHT22;5453;50.852;7.102;2024-03-08T14:04:00;12.80;72.50
10802;DHT22;5453;50.852;7.102;2024-03-08T14:06:34;12.90;72.20
10802;DHT22;5453;50.852;7.102;2024-03-08T14:09:07;12.90;71.30
10802;DHT22;5453;50.852;7.102;2024-03-08T14:11:41;12.90;72.10
10802;DHT22;5453;50.852;7.102;2024-03-08T14:14:13;12.90;72.50
10802;DHT22;5453;50.852;7.102;2024-03-08T14:16:45;12.90;71.80
10802;DHT22;5453;50.852;7.102;2024-03-08T14:19:19;13.00;72.00
10802;DHT22;5453;50.852;7.102;2024-03-08T14:21:51;13.00;71.50
10802;DHT22;5453;50.852;7.102;2024-03-08T14:24:24;13.00;71.40
10802;DHT22;5453;50.852;7.102;2024-03-08T14:26:57;12.90;71.70
10802;DHT22;5453;50.852;7.102;2024-03-08T14:29:30;12.90;71.90
10802;DHT22;5453;50.852;7.102;2024-03-08T14:32:03;12.90;72.30
10802;DHT22;5453;50.852;7.102;2024-03-08T14:34:37;12.90;72.30
10802;DHT22;5453;50.852;7.102;2024-03-08T14:37:09;12.90;72.00
10802;DHT22;5453;50.852;7.102;2024-03-08T14:39:42;12.80;72.00
10802;DHT22;5453;50.852;7.102;2024-03-08T14:42:16;12.80;72.50
10802;DHT22;5453;50.852;7.102;2024-03-08T14:44:48;12.80;72.60
10802;DHT22;5453;50.852;7.102;2024-03-08T14:47:22;12.80;72.70
10802;DHT22;5453;50.852;7.102;2024-03-08T14:49:54;12.80;72.60
10802;DHT22;5453;50.852;7.102;2024-03-08T14:52:26;12.80;72.80
10802;DHT22;5453;50.852;7.102;2024-03-08T14:55:02;12.80;72.20
10802;DHT22;5453;50.852;7.102;2024-03-08T14:57:36;12.70;72.20
10802;DHT22;5453;50.852;7.102;2024-03-08T15:00:12;12.70;72.70
10802;DHT22;5453;50.852;7.102;2024-03-08T15:02:50;12.70;72.00
10802;DHT22;5453;50.852;7.102;2024-03-08T15:05:24;12.70;72.30
10802;DHT22;5453;50.852;7.102;2024-03-08T15:07:57;12.70;72.80
10802;DHT22;5453;50.852;7.102;2024-03-08T15:10:31;12.70;73.10
10802;DHT22;5453;50.852;7.102;2024-03-08T15:13:05;12.70;72.10
10802;DHT22;5453;50.852;7.102;2024-03-08T15:15:48;12.70;72.40
10802;DHT22;5453;50.852;7.102;2024-03-08T15:18:25;12.70;72.30
10802;DHT22;5453;50.852;7.102;2024-03-08T15:21:02;12.70;72.10
10802;DHT22;5453;50.852;7.102;2024-03-08T15:23:37;12.60;71.80
10802;DHT22;5453;50.852;7.102;2024-03-08T15:26:14;12.60;72.30
10802;DHT22;5453;50.852;7.102;2024-03-08T15:28:48;12.60;73.00
10802;DHT22;5453;50.852;7.102;2024-03-08T15:31:22;12.50;72.70
10802;DHT22;5453;50.852;7.102;2024-03-08T15:33:55;12.50;72.10
10802;DHT22;5453;50.852;7.102;2024-03-08T15:36:31;12.40;73.10
10802;DHT22;5453;50.852;7.102;2024-03-08T15:39:07;12.40;72.70
10802;DHT22;5453;50.852;7.102;2024-03-08T15:41:42;12.40;73.30
10802;DHT22;5453;50.852;7.102;2024-03-08T15:44:16;12.40;73.30
10802;DHT22;5453;50.852;7.102;2024-03-08T15:46:51;12.30;73.40
10802;DHT22;5453;50.852;7.102;2024-03-08T15:49:24;12.30;73.80
10802;DHT22;5453;50.852;7.102;2024-03-08T15:51:57;12.20;73.80
10802;DHT22;5453;50.852;7.102;2024-03-08T15:54:29;12.20;74.00
10802;DHT22;5453;50.852;7.102;2024-03-08T15:57:02;12.10;74.20
10802;DHT22;5453;50.852;7.102;2024-03-08T15:59:40;12.10;74.20
10802;DHT22;5453;50.852;7.102;2024-03-08T16:02:13;12.10;74.00
10802;DHT22;5453;50.852;7.102;2024-03-08T16:04:46;12.10;74.20
10802;DHT22;5453;50.852;7.102;2024-03-08T16:07:18;12.00;74.40
10802;DHT22;5453;50.852;7.102;2024-03-08T16:09:50;11.90;75.20
10802;DHT22;5453;50.852;7.102;2024-03-08T16:12:23;11.90;75.70
10802;DHT22;5453;50.852;7.102;2024-03-08T16:15:00;11.80;75.70
10802;DHT22;5453;50.852;7.102;2024-03-08T16:17:32;11.70;76.10
10802;DHT22;5453;50.852;7.102;2024-03-08T16:20:05;11.70;76.20
10802;DHT22;5453;50.852;7.102;2024-03-08T16:22:42;11.70;76.50
10802;DHT22;5453;50.852;7.102;2024-03-08T16:25:15;11.70;76.70
10802;DHT22;5453;50.852;7.102;2024-03-08T16:27:49;11.70;76.70
10802;DHT22;5453;50.852;7.102;2024-03-08T16:30:23;11.60;76.90
10802;DHT22;5453;50.852;7.102;2024-03-08T16:33:00;11.60;77.00
10802;DHT22;5453;50.852;7.102;2024-03-08T16:35:33;11.50;77.20
10802;DHT22;5453;50.852;7.102;2024-03-08T16:38:06;11.50;77.70